Time;durP1;ratioP1;P1;durP2;ratioP2;P2;SDS_P1;SDS_P2;PMS_P1;PMS_P2;Temp;Humidity;BMP_temperature;BMP_pressure;BME280_temperature;BME280_humidity;BME280_pressure;Samples;Min_cycle;Max_cycle;Signal;HPM_P1;HPM_P2
2023/04/12 00:01:51;;;;;;;13.90;12.50;;;10.30;99.90;;;;;;4913932;29;20497;-74
2023/04/12 00:04:17;;;;;;;11.47;10.73;;;10.20;99.90;;;;;;4894641;29;20455;-74
2023/04/12 00:06:47;;;;;;;12.70;11.90;;;10.20;99.90;;;;;;4895119;29;20548;-74
2023/04/12 00:09:15;;;;;;;14.33;13.20;;;10.10;99.90;;;;;;4895070;29;20877;-74
2023/04/12 00:11:43;;;;;;;16.80;15.10;;;10.10;99.90;;;;;;4905082;29;20461;-75
2023/04/12 00:14:09;;;;;;;14.93;13.77;;;10.00;99.90;;;;;;4913790;29;20465;-74
2023/04/12 00:16:37;;;;;;;14.47;13.47;;;10.00;99.90;;;;;;4913706;29;20505;-75
2023/04/12 00:19:05;;;;;;;13.00;12.00;;;10.00;99.90;;;;;;4914038;29;21012;-74
2023/04/12 00:21:32;;;;;;;13.30;12.50;;;9.90;99.90;;;;;;4913926;29;20469;-74
2023/04/12 00:24:00;;;;;;;13.97;13.13;;;9.80;99.90;;;;;;4913886;29;20465;-74
2023/04/12 00:26:26;;;;;;;14.37;13.40;;;9.70;99.90;;;;;;4913462;29;20457;-74
2023/04/12 00:28:54;;;;;;;14.80;13.70;;;9.60;99.90;;;;;;4913390;29;20459;-75
2023/04/12 00:31:21;;;;;;;12.70;12.10;;;9.60;99.90;;;;;;4913581;29;20881;-74
2023/04/12 00:33:48;;;;;;;12.37;11.47;;;9.60;99.90;;;;;;4913846;29;20496;-75
2023/04/12 00:36:14;;;;;;;11.50;10.80;;;9.60;99.90;;;;;;4913773;29;20461;-75
2023/04/12 00:38:41;;;;;;;12.20;11.50;;;9.70;99.90;;;;;;4912508;29;20462;-75
2023/04/12 00:41:08;;;;;;;14.23;13.40;;;9.70;99.90;;;;;;4912988;29;20545;-73
2023/04/12 00:43:35;;;;;;;15.50;14.70;;;9.70;99.90;;;;;;4913412;29;20462;-73
2023/04/12 00:46:03;;;;;;;15.47;14.63;;;9.80;99.90;;;;;;4913676;29;20458;-74
2023/04/12 00:48:31;;;;;;;19.50;18.50;;;9.70;99.90;;;;;;4913587;29;20881;-72
2023/04/12 00:50:58;;;;;;;22.43;21.00;;;9.70;99.90;;;;;;4912983;29;20485;-73
2023/04/12 00:53:25;;;;;;;23.37;22.37;;;9.60;99.90;;;;;;4913415;29;20562;-73
2023/04/12 00:55:52;;;;;;;26.10;24.10;;;9.50;99.90;;;;;;4909928;29;20525;-73
2023/04/12 00:58:20;;;;;;;25.90;24.50;;;9.40;99.90;;;;;;4896232;29;20494;-73
2023/04/12 01:00:51;;;;;;;25.83;24.43;;;9.30;99.90;;;;;;4913160;29;20509;-74
2023/04/12 01:03:21;;;;;;;26.70;25.10;;;9.30;99.90;;;;;;4913186;29;20459;-74
2023/04/12 01:05:59;;;;;;;27.03;24.87;;;9.20;99.90;;;;;;4913275;29;20517;-75
2023/04/12 01:08:38;;;;;;;26.90;25.30;;;9.10;99.90;;;;;;4913004;29;20461;-75
2023/04/12 01:11:14;;;;;;;25.80;24.50;;;9.20;99.90;;;;;;4913224;29;20509;-75
2023/04/12 01:13:45;;;;;;;27.17;25.73;;;9.10;99.90;;;;;;4912893;29;21099;-74
2023/04/12 01:16:18;;;;;;;29.07;27.57;;;9.10;99.90;;;;;;4912858;29;20466;-74
2023/04/12 01:18:50;;;;;;;27.57;25.97;;;9.00;99.90;;;;;;4913059;29;20964;-74
2023/04/12 01:21:26;;;;;;;27.77;26.47;;;8.90;99.90;;;;;;4913056;29;20953;-73
2023/04/12 01:24:12;;;;;;;27.20;25.67;;;9.00;99.90;;;;;;4913009;29;20449;-74
2023/04/12 01:26:43;;;;;;;29.40;27.60;;;8.90;99.90;;;;;;4912947;29;20769;-75
2023/04/12 01:29:14;;;;;;;28.13;26.57;;;8.90;99.90;;;;;;4912803;29;20454;-76
2023/04/12 01:31:44;;;;;;;29.93;28.23;;;8.90;99.90;;;;;;4912786;29;20581;-76
2023/04/12 01:34:12;;;;;;;28.77;27.07;;;8.90;99.90;;;;;;4913720;29;20510;-75
2023/04/12 01:36:40;;;;;;;28.63;27.10;;;8.80;99.90;;;;;;4929782;29;20514;-75
2023/04/12 01:39:08;;;;;;;31.20;29.00;;;8.80;99.90;;;;;;4915591;29;20529;-73
2023/04/12 01:41:40;;;;;;;30.10;28.20;;;8.80;99.90;;;;;;4914082;29;20509;-73
2023/04/12 01:44:07;;;;;;;29.43;27.73;;;8.90;99.90;;;;;;4913930;29;20461;-73
2023/04/12 01:46:36;;;;;;;28.70;27.00;;;8.80;99.90;;;;;;4913375;29;20521;-74
2023/04/12 01:49:03;;;;;;;30.60;28.30;;;8.80;99.90;;;;;;4914362;29;20488;-73
2023/04/12 01:51:39;;;;;;;29.67;27.97;;;8.80;99.90;;;;;;4916222;29;20494;-73
2023/04/12 01:54:10;;;;;;;29.37;27.23;;;8.70;99.90;;;;;;4916228;29;20549;-73
2023/04/12 01:56:40;;;;;;;29.00;27.10;;;8.70;99.90;;;;;;4915918;29;20469;-73
2023/04/12 01:59:08;;;;;;;29.87;28.23;;;8.70;99.90;;;;;;4916093;29;20454;-73
2023/04/12 02:01:36;;;;;;;30.40;28.17;;;8.60;99.90;;;;;;4916158;29;20731;-76
2023/04/12 02:04:05;;;;;;;30.57;28.47;;;8.60;99.90;;;;;;4916193;29;20451;-74
2023/04/12 02:06:33;;;;;;;28.90;27.23;;;8.60;99.90;;;;;;4916218;29;20566;-74
2023/04/12 02:09:02;;;;;;;29.23;27.40;;;8.60;99.90;;;;;;4916337;29;20458;-75
2023/04/12 02:11:28;;;;;;;29.07;27.30;;;8.60;99.90;;;;;;4915677;29;20458;-74
2023/04/12 02:13:55;;;;;;;29.27;27.20;;;8.60;99.90;;;;;;4915796;29;20457;-74
2023/04/12 02:16:22;;;;;;;29.83;27.90;;;8.60;99.90;;;;;;4915775;29;20457;-73
2023/04/12 02:18:50;;;;;;;31.10;28.83;;;8.50;99.90;;;;;;4915851;29;20486;-74
2023/04/12 02:21:17;;;;;;;30.40;28.10;;;8.50;99.90;;;;;;4916064;29;20454;-74
2023/04/12 02:23:44;;;;;;;29.03;27.23;;;8.40;99.90;;;;;;4915657;29;20473;-74
2023/04/12 02:26:11;;;;;;;29.30;27.40;;;8.50;99.90;;;;;;4915370;29;20475;-74
2023/04/12 02:28:38;;;;;;;30.17;27.87;;;8.40;99.90;;;;;;4915588;29;20462;-74
2023/04/12 02:31:05;;;;;;;29.43;27.73;;;8.40;99.90;;;;;;4915862;29;20455;-74
2023/04/12 02:33:33;;;;;;;29.63;27.73;;;8.40;99.90;;;;;;4915787;29;20450;-74
2023/04/12 02:36:02;;;;;;;29.17;27.40;;;8.40;99.90;;;;;;4915531;29;20558;-74
2023/04/12 02:38:29;;;;;;;29.10;27.40;;;8.30;99.90;;;;;;4915369;29;20582;-73
2023/04/12 02:40:55;;;;;;;28.97;27.17;;;8.30;99.90;;;;;;4915314;29;20509;-74
2023/04/12 02:43:22;;;;;;;28.60;27.03;;;8.30;99.90;;;;;;4915368;29;20454;-73
2023/04/12 02:45:49;;;;;;;28.70;26.80;;;8.30;99.90;;;;;;4915522;29;20466;-73
2023/04/12 02:48:15;;;;;;;29.07;27.20;;;8.30;99.90;;;;;;4915312;29;20454;-74
2023/04/12 02:50:42;;;;;;;30.90;28.80;;;8.30;99.90;;;;;;4915120;29;20478;-74
2023/04/12 02:53:10;;;;;;;31.07;29.17;;;8.40;99.90;;;;;;4915189;29;20525;-73
2023/04/12 02:55:39;;;;;;;28.03;26.53;;;8.40;99.90;;;;;;4915063;29;20450;-73
2023/04/12 02:58:05;;;;;;;29.70;28.10;;;8.40;99.90;;;;;;4915048;29;20854;-72
2023/04/12 03:00:32;;;;;;;30.03;28.13;;;8.40;99.90;;;;;;4914435;29;20572;-72
2023/04/12 03:03:00;;;;;;;32.00;29.80;;;8.40;99.90;;;;;;4914816;29;20473;-73
2023/04/12 03:05:27;;;;;;;29.03;27.40;;;8.30;99.90;;;;;;4914048;29;20670;-73
2023/04/12 03:07:54;;;;;;;29.53;27.83;;;8.40;99.90;;;;;;4913960;29;20553;-73
2023/04/12 03:10:22;;;;;;;29.67;27.97;;;8.40;99.90;;;;;;4914177;29;20455;-74
2023/04/12 03:12:48;;;;;;;31.40;29.40;;;8.30;99.90;;;;;;4914357;29;20517;-73
2023/04/12 03:15:16;;;;;;;28.90;27.20;;;8.40;99.90;;;;;;4914252;29;20828;-74
2023/04/12 03:17:43;;;;;;;31.57;29.40;;;8.40;99.90;;;;;;4913881;29;20496;-74
2023/04/12 03:20:10;;;;;;;32.10;30.20;;;8.50;99.90;;;;;;4914012;29;20860;-75
2023/04/12 03:22:37;;;;;;;31.30;29.40;;;8.40;99.90;;;;;;4913906;29;20458;-73
2023/04/12 03:25:04;;;;;;;31.73;29.93;;;8.40;99.90;;;;;;4914134;29;20486;-75
2023/04/12 03:27:32;;;;;;;30.77;28.80;;;8.40;99.90;;;;;;4914010;29;20489;-74
2023/04/12 03:29:59;;;;;;;31.20;29.03;;;8.50;99.90;;;;;;4914013;29;20458;-74
2023/04/12 03:32:26;;;;;;;30.20;28.40;;;8.40;99.90;;;;;;4913780;29;20642;-74
2023/04/12 03:34:52;;;;;;;33.50;31.10;;;8.50;99.90;;;;;;4913527;29;20461;-74
2023/04/12 03:37:19;;;;;;;32.50;30.33;;;8.50;99.90;;;;;;4913588;29;20541;-73
2023/04/12 03:39:46;;;;;;;31.30;29.10;;;8.50;99.90;;;;;;4913828;29;20486;-72
2023/04/12 03:42:13;;;;;;;32.10;30.30;;;8.50;99.90;;;;;;4913369;29;20470;-72
2023/04/12 03:44:41;;;;;;;32.13;30.23;;;8.50;99.90;;;;;;4913340;29;21004;-72
2023/04/12 03:47:08;;;;;;;32.43;30.47;;;8.50;99.90;;;;;;4913235;29;20465;-71
2023/04/12 03:49:37;;;;;;;30.80;29.00;;;8.60;99.90;;;;;;4913091;29;20573;-71
2023/04/12 03:52:06;;;;;;;31.90;29.60;;;8.60;99.90;;;;;;4913296;29;20518;-72
2023/04/12 03:54:32;;;;;;;31.10;29.13;;;8.50;99.90;;;;;;4913502;29;20454;-71
2023/04/12 03:57:00;;;;;;;29.10;27.50;;;8.50;99.90;;;;;;4913061;29;20467;-71
2023/04/12 03:59:27;;;;;;;31.43;29.40;;;8.50;99.90;;;;;;4912787;29;20821;-71
2023/04/12 04:01:55;;;;;;;32.13;30.13;;;8.50;99.90;;;;;;4913142;29;20745;-71
2023/04/12 04:04:22;;;;;;;32.17;30.17;;;8.50;99.90;;;;;;4913082;29;20466;-71
2023/04/12 04:06:49;;;;;;;30.80;28.67;;;8.50;99.90;;;;;;4913225;29;20822;-72
2023/04/12 04:09:16;;;;;;;30.43;28.13;;;8.50;99.90;;;;;;4913148;29;20447;-72
2023/04/12 04:11:43;;;;;;;29.07;27.57;;;8.50;99.90;;;;;;4913290;29;20501;-72
2023/04/12 04:14:10;;;;;;;28.97;27.30;;;8.50;99.90;;;;;;4915095;29;20977;-72
2023/04/12 04:16:36;;;;;;;28.87;27.17;;;8.50;99.90;;;;;;4915398;29;20451;-72
2023/04/12 04:19:04;;;;;;;29.00;27.40;;;8.40;99.90;;;;;;4915776;29;20494;-72
2023/04/12 04:21:31;;;;;;;28.67;27.10;;;8.50;99.90;;;;;;4915781;29;20450;-72
2023/04/12 04:23:59;;;;;;;30.77;28.97;;;8.50;99.90;;;;;;4915356;29;20862;-73
2023/04/12 04:26:31;;;;;;;29.37;27.63;;;8.40;99.90;;;;;;4916232;29;20470;-72
2023/04/12 04:29:00;;;;;;;29.13;27.53;;;8.50;99.90;;;;;;4916367;29;20786;-73
2023/04/12 04:31:32;;;;;;;30.43;28.70;;;8.50;99.90;;;;;;4917179;29;20466;-73
2023/04/12 04:34:00;;;;;;;32.80;30.47;;;8.40;99.90;;;;;;4916337;29;20828;-73
2023/04/12 04:36:28;;;;;;;31.30;29.40;;;8.40;99.90;;;;;;4914509;29;20458;-73
2023/04/12 04:38:55;;;;;;;30.00;28.17;;;8.40;99.90;;;;;;4915959;29;20486;-75
2023/04/12 04:41:23;;;;;;;30.53;28.63;;;8.40;99.90;;;;;;4917876;29;20473;-74
2023/04/12 04:43:50;;;;;;;30.93;29.17;;;8.40;99.90;;;;;;4914075;29;20838;-74
2023/04/12 04:46:19;;;;;;;29.67;27.87;;;8.40;99.90;;;;;;4913284;29;20459;-73
2023/04/12 04:48:46;;;;;;;30.20;28.40;;;8.40;99.90;;;;;;4919762;29;20961;-74
2023/04/12 04:51:13;;;;;;;30.53;28.83;;;8.50;99.90;;;;;;4931532;29;20508;-73
2023/04/12 04:53:42;;;;;;;30.73;28.93;;;8.40;99.90;;;;;;4931584;29;20453;-73
2023/04/12 04:56:09;;;;;;;29.37;27.77;;;8.40;99.90;;;;;;4931506;29;20454;-73
2023/04/12 04:58:36;;;;;;;30.23;28.57;;;8.40;99.90;;;;;;4931659;29;20540;-73
2023/04/12 05:01:04;;;;;;;30.67;28.60;;;8.40;99.90;;;;;;4931835;29;20460;-74
2023/04/12 05:03:32;;;;;;;31.40;29.30;;;8.50;99.90;;;;;;4920075;29;20478;-74
2023/04/12 05:06:00;;;;;;;30.40;28.70;;;8.50;99.90;;;;;;4912522;29;20462;-73
2023/04/12 05:08:27;;;;;;;30.67;28.77;;;8.60;99.90;;;;;;4912509;29;20541;-73
2023/04/12 05:10:56;;;;;;;32.23;30.10;;;8.60;99.90;;;;;;4912328;29;20978;-74
2023/04/12 05:13:23;;;;;;;31.00;29.03;;;8.60;99.90;;;;;;4913175;29;20462;-74
2023/04/12 05:15:50;;;;;;;32.97;30.77;;;8.60;99.90;;;;;;4912817;29;20480;-73
2023/04/12 05:18:17;;;;;;;29.47;27.87;;;8.60;99.90;;;;;;4912331;29;20996;-73
2023/04/12 05:20:44;;;;;;;29.23;27.53;;;8.60;99.90;;;;;;4912296;29;20478;-72
2023/04/12 05:23:11;;;;;;;31.03;29.13;;;8.70;99.90;;;;;;4912431;29;20549;-72
2023/04/12 05:25:45;;;;;;;29.97;28.27;;;8.70;99.90;;;;;;4916143;29;20466;-73
2023/04/12 05:28:14;;;;;;;30.80;28.70;;;8.60;99.90;;;;;;4915697;29;20995;-72
2023/04/12 05:30:41;;;;;;;31.63;29.60;;;8.60;99.90;;;;;;4915884;29;20620;-73
2023/04/12 05:33:07;;;;;;;30.73;28.80;;;8.70;99.90;;;;;;4915917;29;20462;-72
2023/04/12 05:35:34;;;;;;;32.00;29.60;;;8.70;99.90;;;;;;4916206;29;20465;-73
2023/04/12 05:38:01;;;;;;;31.03;29.23;;;8.70;99.90;;;;;;4916041;29;20956;-73
2023/04/12 05:40:30;;;;;;;31.37;29.17;;;8.70;99.90;;;;;;4915801;29;20533;-74
2023/04/12 05:42:57;;;;;;;31.97;29.97;;;8.70;99.90;;;;;;4915625;29;20469;-74
2023/04/12 05:45:25;;;;;;;30.90;28.90;;;8.70;99.90;;;;;;4915666;29;20558;-74
2023/04/12 05:47:51;;;;;;;31.83;29.73;;;8.80;99.90;;;;;;4915544;29;20465;-74
2023/04/12 05:50:19;;;;;;;29.33;27.83;;;8.80;99.90;;;;;;4915870;29;20474;-74
2023/04/12 05:52:47;;;;;;;30.23;28.53;;;8.80;99.90;;;;;;4915503;29;20553;-74
2023/04/12 05:55:15;;;;;;;31.17;29.33;;;8.90;99.90;;;;;;4915356;29;20462;-75
2023/04/12 05:57:42;;;;;;;29.47;27.87;;;8.90;99.90;;;;;;4915052;29;20525;-75
2023/04/12 06:00:12;;;;;;;30.40;28.57;;;8.90;99.90;;;;;;4915407;29;20933;-76
2023/04/12 06:02:40;;;;;;;30.43;28.53;;;8.90;99.90;;;;;;4915372;29;20462;-75
2023/04/12 06:05:08;;;;;;;28.30;27.00;;;8.90;99.90;;;;;;4915473;29;20454;-76
2023/04/12 06:07:35;;;;;;;30.37;28.77;;;9.00;99.90;;;;;;4915354;29;20454;-75
2023/04/12 06:10:02;;;;;;;30.00;28.30;;;9.00;99.90;;;;;;4915442;29;20470;-80
2023/04/12 06:12:29;;;;;;;30.40;28.60;;;9.10;99.90;;;;;;4915352;29;20493;-80
2023/04/12 06:14:56;;;;;;;30.50;29.10;;;9.10;99.90;;;;;;4917246;29;20481;-75
2023/04/12 06:17:23;;;;;;;30.90;29.37;;;9.10;99.90;;;;;;4920179;29;20509;-75
2023/04/12 06:19:51;;;;;;;28.70;27.10;;;9.10;99.90;;;;;;4923236;29;20567;-75
2023/04/12 06:22:18;;;;;;;28.83;27.20;;;9.10;99.90;;;;;;4924552;29;20454;-75
2023/04/12 06:24:44;;;;;;;29.27;27.80;;;9.00;99.90;;;;;;4923713;29;20468;-75
2023/04/12 06:27:11;;;;;;;28.40;27.00;;;9.10;99.90;;;;;;4926275;29;20812;-75
2023/04/12 06:29:38;;;;;;;28.70;27.17;;;9.10;99.90;;;;;;4933854;29;20468;-75
2023/04/12 06:32:05;;;;;;;29.60;27.93;;;9.10;99.90;;;;;;4933945;29;21628;-79
2023/04/12 06:34:31;;;;;;;30.90;29.30;;;9.20;99.90;;;;;;4935216;29;20461;-78
2023/04/12 06:36:59;;;;;;;31.90;30.10;;;9.20;99.90;;;;;;4933573;29;20464;-77
2023/04/12 06:39:27;;;;;;;30.57;28.97;;;9.20;99.90;;;;;;4934336;29;20496;-77
2023/04/12 06:41:56;;;;;;;30.73;28.67;;;9.30;99.90;;;;;;4933759;29;20747;-77
2023/04/12 06:44:23;;;;;;;31.10;29.20;;;9.30;99.90;;;;;;4933531;29;20524;-74
2023/04/12 06:46:50;;;;;;;30.30;28.70;;;9.40;99.90;;;;;;4933705;29;20531;-74
2023/04/12 06:49:16;;;;;;;31.20;29.40;;;9.40;99.90;;;;;;4931108;29;20469;-73
2023/04/12 06:51:44;;;;;;;30.63;28.73;;;9.40;99.90;;;;;;4932325;29;20481;-73
2023/04/12 06:54:13;;;;;;;31.07;29.50;;;9.40;99.90;;;;;;4933043;29;20465;-73
2023/04/12 06:56:40;;;;;;;32.03;30.13;;;9.40;99.90;;;;;;4932947;29;20476;-73
2023/04/12 06:59:07;;;;;;;31.50;30.00;;;9.50;99.90;;;;;;4932797;29;20485;-73
2023/04/12 07:01:34;;;;;;;31.33;29.57;;;9.50;99.90;;;;;;4933197;29;20461;-73
2023/04/12 07:04:01;;;;;;;30.70;29.10;;;9.50;99.90;;;;;;4917462;29;20450;-73
2023/04/12 07:06:28;;;;;;;30.83;28.93;;;9.50;99.90;;;;;;4914053;29;20774;-73
2023/04/12 07:08:55;;;;;;;32.53;30.83;;;9.50;99.90;;;;;;4914126;29;20945;-73
2023/04/12 07:11:23;;;;;;;30.47;28.77;;;9.50;99.90;;;;;;4914043;29;20469;-74
2023/04/12 07:13:51;;;;;;;32.97;31.27;;;9.50;99.90;;;;;;4914134;29;20492;-72
2023/04/12 07:16:17;;;;;;;33.33;31.63;;;9.60;99.90;;;;;;4914361;29;20778;-73
2023/04/12 07:18:44;;;;;;;30.03;28.40;;;9.60;99.90;;;;;;4914215;29;20498;-72
2023/04/12 07:21:13;;;;;;;29.43;28.13;;;9.70;99.90;;;;;;4914481;29;20464;-73
2023/04/12 07:23:39;;;;;;;31.93;30.20;;;9.70;99.90;;;;;;4914261;29;20466;-74
2023/04/12 07:26:06;;;;;;;30.70;29.30;;;9.70;99.90;;;;;;4914433;29;20577;-72
2023/04/12 07:28:34;;;;;;;30.43;28.57;;;9.70;99.90;;;;;;4914820;29;20844;-72
2023/04/12 07:31:04;;;;;;;31.77;30.20;;;9.70;99.90;;;;;;4914908;29;20564;-74
2023/04/12 07:33:31;;;;;;;29.97;28.33;;;9.80;99.90;;;;;;4915691;29;20458;-72
2023/04/12 07:35:59;;;;;;;31.50;29.80;;;10.00;99.90;;;;;;4913174;29;20493;-72
2023/04/12 07:38:26;;;;;;;31.23;29.83;;;10.10;99.90;;;;;;4915694;29;20887;-73
2023/04/12 07:40:53;;;;;;;31.90;30.27;;;10.10;99.90;;;;;;4914659;29;20463;-72
2023/04/12 07:43:20;;;;;;;30.97;29.47;;;10.10;99.90;;;;;;4914099;29;20514;-72
2023/04/12 07:45:48;;;;;;;32.70;31.13;;;10.00;99.90;;;;;;4913789;29;20454;-72
2023/04/12 07:48:15;;;;;;;31.97;30.37;;;10.00;99.90;;;;;;4913058;29;20454;-72
2023/04/12 07:50:42;;;;;;;32.17;30.30;;;10.00;99.90;;;;;;4912907;29;20478;-72
2023/04/12 07:53:19;;;;;;;30.17;28.77;;;10.10;99.90;;;;;;4894148;29;20451;-73
2023/04/12 07:55:46;;;;;;;29.47;28.00;;;10.10;99.90;;;;;;4894357;29;20477;-73
2023/04/12 07:58:13;;;;;;;29.27;28.03;;;10.10;99.90;;;;;;4893858;29;20541;-72
2023/04/12 08:00:39;;;;;;;28.50;27.20;;;10.10;99.90;;;;;;4894057;29;20757;-73
2023/04/12 08:03:08;;;;;;;27.53;25.70;;;10.20;99.90;;;;;;4885561;29;20460;-72
2023/04/12 08:05:34;;;;;;;26.17;24.97;;;10.20;99.90;;;;;;4875394;29;20456;-72
2023/04/12 08:08:01;;;;;;;25.73;24.43;;;10.20;99.90;;;;;;4875564;29;20467;-71
2023/04/12 08:10:28;;;;;;;21.70;20.90;;;10.30;99.90;;;;;;4874713;29;20560;-73
2023/04/12 08:12:55;;;;;;;20.13;19.23;;;10.30;99.90;;;;;;4875071;29;20467;-72
2023/04/12 08:15:22;;;;;;;17.97;17.20;;;10.30;99.90;;;;;;4877394;29;20459;-73
2023/04/12 08:17:49;;;;;;;18.00;16.90;;;10.40;99.90;;;;;;4877398;29;20484;-72
2023/04/12 08:20:17;;;;;;;17.37;16.67;;;10.50;99.90;;;;;;4874787;29;20499;-72
2023/04/12 08:22:44;;;;;;;15.90;15.23;;;10.60;99.90;;;;;;4879539;29;20475;-72
2023/04/12 08:25:11;;;;;;;15.50;14.80;;;10.60;99.90;;;;;;4891151;29;20569;-73
2023/04/12 08:27:39;;;;;;;13.50;13.00;;;10.60;99.90;;;;;;4874828;29;20966;-72
2023/04/12 08:30:08;;;;;;;14.50;14.00;;;10.60;99.90;;;;;;4876918;29;20452;-73
2023/04/12 08:32:36;;;;;;;13.40;12.80;;;10.60;99.90;;;;;;4893102;29;21046;-72
2023/04/12 08:35:03;;;;;;;14.80;14.00;;;10.60;99.90;;;;;;4893515;29;20701;-72
2023/04/12 08:37:31;;;;;;;13.33;12.83;;;10.70;99.90;;;;;;4893419;29;20483;-73
2023/04/12 08:39:59;;;;;;;13.07;12.60;;;10.70;99.90;;;;;;4876835;29;20582;-73
2023/04/12 08:42:26;;;;;;;14.13;13.20;;;10.80;99.90;;;;;;4874748;29;20456;-72
2023/04/12 08:44:53;;;;;;;14.80;14.13;;;10.80;99.90;;;;;;4874659;29;20468;-72
2023/04/12 08:47:21;;;;;;;14.10;13.23;;;10.90;99.90;;;;;;4874633;29;20516;-72
2023/04/12 08:49:48;;;;;;;14.70;13.90;;;10.90;99.90;;;;;;4874614;29;20479;-72
2023/04/12 08:52:15;;;;;;;16.10;13.90;;;11.00;99.90;;;;;;4884269;29;21002;-72
2023/04/12 08:54:43;;;;;;;15.07;13.80;;;11.10;99.90;;;;;;4893020;29;20455;-72
2023/04/12 08:57:10;;;;;;;15.47;14.67;;;11.20;99.90;;;;;;4910685;29;20468;-72
2023/04/12 08:59:38;;;;;;;16.40;15.60;;;11.20;99.90;;;;;;4911839;29;20549;-72
2023/04/12 09:02:05;;;;;;;15.43;14.73;;;11.20;99.90;;;;;;4912427;29;20459;-72
2023/04/12 09:04:32;;;;;;;16.33;15.63;;;11.20;99.90;;;;;;4912791;29;20491;-75
2023/04/12 09:06:59;;;;;;;16.10;15.50;;;11.20;99.90;;;;;;4912502;29;20458;-73
2023/04/12 09:09:40;;;;;;;15.23;14.53;;;11.20;99.90;;;;;;4912568;29;20494;-73
2023/04/12 09:12:10;;;;;;;16.60;15.80;;;11.20;99.90;;;;;;4912397;29;20482;-74
2023/04/12 09:14:38;;;;;;;18.20;17.30;;;11.30;99.90;;;;;;4912230;29;20461;-72
2023/04/12 09:17:06;;;;;;;21.63;20.43;;;11.30;99.90;;;;;;4912338;29;20467;-73
2023/04/12 09:19:33;;;;;;;23.70;22.60;;;11.30;99.90;;;;;;4912987;29;20553;-74
2023/04/12 09:22:00;;;;;;;22.07;21.07;;;11.20;99.90;;;;;;4911556;29;20466;-74
2023/04/12 09:24:27;;;;;;;25.00;23.70;;;11.20;99.90;;;;;;4910661;29;20454;-74
2023/04/12 09:27:02;;;;;;;24.30;23.10;;;11.30;99.90;;;;;;4912707;29;20446;-74
2023/04/12 09:29:32;;;;;;;22.67;21.57;;;11.30;99.90;;;;;;4912726;29;20454;-74
2023/04/12 09:32:02;;;;;;;23.00;21.93;;;11.40;99.90;;;;;;4912552;29;20461;-74
2023/04/12 09:34:29;;;;;;;24.57;23.27;;;11.50;99.90;;;;;;4912543;29;20446;-73
2023/04/12 09:36:56;;;;;;;24.03;22.83;;;11.60;99.90;;;;;;4912612;29;20490;-73
2023/04/12 09:39:33;;;;;;;22.60;21.60;;;11.70;99.90;;;;;;4912485;29;20490;-72
2023/04/12 09:42:06;;;;;;;21.97;20.87;;;11.80;99.90;;;;;;4912663;29;20454;-72
2023/04/12 09:44:35;;;;;;;21.37;20.40;;;11.70;99.90;;;;;;4912635;29;20458;-72
2023/04/12 09:47:03;;;;;;;21.03;20.13;;;11.80;99.90;;;;;;4912682;29;20466;-72
2023/04/12 09:49:38;;;;;;;19.53;18.63;;;11.90;99.90;;;;;;4912512;29;20526;-72
2023/04/12 09:52:06;;;;;;;19.00;18.20;;;11.90;99.90;;;;;;4912108;29;20524;-73
2023/04/12 09:54:38;;;;;;;18.70;18.00;;;12.00;99.90;;;;;;4912831;29;20458;-73
2023/04/12 09:57:07;;;;;;;18.93;18.03;;;12.10;99.90;;;;;;4912313;29;20492;-73
2023/04/12 09:59:38;;;;;;;18.63;17.83;;;12.20;99.90;;;;;;4912478;29;20493;-73
2023/04/12 10:02:11;;;;;;;19.47;18.37;;;12.30;99.90;;;;;;4912383;29;20548;-74
2023/04/12 10:04:40;;;;;;;18.27;17.50;;;12.30;99.90;;;;;;4912134;29;20462;-73
2023/04/12 10:07:07;;;;;;;19.23;18.33;;;12.50;99.90;;;;;;4912333;29;20468;-73
2023/04/12 10:09:34;;;;;;;17.30;16.40;;;12.60;99.90;;;;;;4913184;29;20458;-73
2023/04/12 10:12:03;;;;;;;15.27;14.67;;;12.60;99.90;;;;;;4916049;29;20453;-73
2023/04/12 10:14:30;;;;;;;13.90;13.20;;;12.80;99.90;;;;;;4915901;29;20549;-73
2023/04/12 10:17:00;;;;;;;12.83;11.97;;;12.90;99.90;;;;;;4915583;29;20465;-73
2023/04/12 10:19:28;;;;;;;13.57;12.67;;;13.30;99.90;;;;;;4916327;29;20585;-72
2023/04/12 10:21:56;;;;;;;12.27;11.60;;;13.70;99.90;;;;;;4916822;29;20556;-72
2023/04/12 10:24:23;;;;;;;11.73;10.90;;;13.90;99.90;;;;;;4915877;29;20802;-72
2023/04/12 10:26:51;;;;;;;12.20;11.40;;;14.20;99.90;;;;;;4915635;29;20462;-73
2023/04/12 10:29:25;;;;;;;11.13;10.53;;;14.40;99.90;;;;;;4915467;29;20454;-73
2023/04/12 10:31:52;;;;;;;10.70;9.90;;;14.70;99.90;;;;;;4915389;29;20466;-76
2023/04/12 10:34:28;;;;;;;12.53;11.93;;;14.90;99.90;;;;;;4915608;29;20861;-72
2023/04/12 10:36:56;;;;;;;10.60;10.20;;;15.20;99.90;;;;;;4915346;29;20792;-72
2023/04/12 10:39:38;;;;;;;11.20;10.67;;;15.60;99.90;;;;;;4915209;29;20514;-73
2023/04/12 10:42:22;;;;;;;12.87;12.17;;;15.90;99.90;;;;;;4915357;29;20466;-73
2023/04/12 10:44:50;;;;;;;10.33;9.93;;;16.10;99.90;;;;;;4915517;29;21257;-73
2023/04/12 10:48:00;;;;;;;10.80;10.40;;;16.30;99.90;;;;;;4915363;29;20513;-73
2023/04/12 10:50:29;;;;;;;11.30;10.80;;;16.30;99.90;;;;;;4915102;29;20474;-73
2023/04/12 10:53:24;;;;;;;11.40;10.80;;;16.60;99.90;;;;;;4914670;29;21035;-72
2023/04/12 10:55:52;;;;;;;10.50;10.03;;;16.30;99.90;;;;;;4914928;29;20474;-73
2023/04/12 10:58:57;;;;;;;10.80;10.30;;;16.20;99.90;;;;;;4914837;29;20549;-73
2023/04/12 11:01:24;;;;;;;11.50;10.60;;;16.10;99.90;;;;;;4914536;29;20774;-72
2023/04/12 11:04:18;;;;;;;11.50;10.80;;;15.90;99.90;;;;;;4914834;29;20454;-72
2023/04/12 11:07:09;;;;;;;13.57;12.87;;;15.90;99.90;;;;;;4914866;29;20929;-72
2023/04/12 11:09:42;;;;;;;11.13;10.73;;;16.00;99.90;;;;;;4914421;29;20455;-72
2023/04/12 11:12:13;;;;;;;12.07;11.57;;;16.10;99.90;;;;;;4914672;29;20811;-72
2023/04/12 11:14:44;;;;;;;10.57;10.17;;;16.20;99.90;;;;;;4914794;29;21146;-71
2023/04/12 11:17:25;;;;;;;10.43;9.93;;;16.20;99.90;;;;;;4914572;29;20455;-71
2023/04/12 11:19:54;;;;;;;9.77;9.30;;;16.50;99.90;;;;;;4913705;29;20503;-72
2023/04/12 11:22:24;;;;;;;10.37;9.87;;;16.60;99.90;;;;;;4914159;29;20559;-72
2023/04/12 11:24:53;;;;;;;11.43;10.97;;;16.50;99.90;;;;;;4914509;29;20506;-72
2023/04/12 11:27:20;;;;;;;11.63;11.23;;;16.30;99.90;;;;;;4914485;29;20458;-71
2023/04/12 11:29:49;;;;;;;11.30;10.90;;;16.20;99.90;;;;;;4914695;29;20465;-72
2023/04/12 11:32:17;;;;;;;12.30;11.90;;;16.00;99.90;;;;;;4895677;29;20538;-72
2023/04/12 11:34:44;;;;;;;11.10;10.70;;;16.00;99.90;;;;;;4895231;29;20973;-72
2023/04/12 11:37:11;;;;;;;12.37;11.73;;;16.10;99.90;;;;;;4895452;29;20502;-72
2023/04/12 11:39:41;;;;;;;11.90;11.40;;;16.00;99.90;;;;;;4895276;29;20463;-71
2023/04/12 11:42:12;;;;;;;11.63;11.23;;;16.10;99.90;;;;;;4895201;29;20798;-72
2023/04/12 11:44:40;;;;;;;10.97;10.50;;;16.10;99.90;;;;;;4895394;29;20455;-72
2023/04/12 11:47:13;;;;;;;9.93;9.53;;;16.40;99.90;;;;;;4895065;29;20546;-72
2023/04/12 11:49:43;;;;;;;9.60;9.30;;;16.60;99.90;;;;;;4895291;29;20475;-72
2023/04/12 11:52:11;;;;;;;9.20;8.80;;;16.60;99.90;;;;;;4894877;29;20487;-72
2023/04/12 11:54:45;;;;;;;9.67;9.37;;;16.80;99.90;;;;;;4895148;29;20463;-72
2023/04/12 11:57:13;;;;;;;10.83;10.43;;;16.70;99.90;;;;;;4895084;29;20458;-71
2023/04/12 11:59:42;;;;;;;10.20;9.90;;;16.70;99.90;;;;;;4894812;29;20486;-71
2023/04/12 12:02:09;;;;;;;10.80;10.37;;;16.70;99.90;;;;;;4895719;29;20463;-71
2023/04/12 12:04:36;;;;;;;10.70;10.30;;;16.60;99.90;;;;;;4913830;29;20466;-73
2023/04/12 12:07:05;;;;;;;10.57;10.17;;;16.80;99.90;;;;;;4913848;29;20468;-71
2023/04/12 12:09:32;;;;;;;10.53;10.13;;;16.70;99.90;;;;;;4913726;29;20458;-72
2023/04/12 12:12:00;;;;;;;11.23;10.73;;;17.00;99.90;;;;;;4912421;29;20456;-72
2023/04/12 12:14:28;;;;;;;11.10;10.67;;;17.40;99.90;;;;;;4913693;29;20541;-72
2023/04/12 12:16:56;;;;;;;11.83;11.43;;;17.50;99.90;;;;;;4913300;29;20695;-72
2023/04/12 12:19:30;;;;;;;10.03;9.57;;;17.80;99.90;;;;;;4913440;29;20526;-73
2023/04/12 12:22:21;;;;;;;10.33;9.93;;;17.80;99.90;;;;;;4913092;29;20501;-72
2023/04/12 12:24:53;;;;;;;9.60;9.30;;;17.40;99.90;;;;;;4898892;29;20466;-72
2023/04/12 12:27:22;;;;;;;10.00;9.70;;;17.40;99.90;;;;;;4913591;29;20458;-73
2023/04/12 12:29:52;;;;;;;12.00;11.50;;;17.60;99.90;;;;;;4913463;29;20461;-72
2023/04/12 12:32:19;;;;;;;10.83;10.43;;;17.90;99.90;;;;;;4894366;29;20454;-72
2023/04/12 12:34:53;;;;;;;11.63;11.10;;;17.90;99.90;;;;;;4893766;29;20483;-73
2023/04/12 12:37:23;;;;;;;10.70;10.40;;;18.30;99.90;;;;;;4894281;29;20534;-73
2023/04/12 12:40:10;;;;;;;10.70;10.30;;;18.50;99.90;;;;;;4894210;29;20506;-72
2023/04/12 12:42:45;;;;;;;10.27;9.97;;;18.10;99.90;;;;;;4893998;29;20462;-72